• Join FlightAware (Why Join?)
  • Login
  • US Flag 
07:29PM EST


 

Airport Tracker/Info


-or-


 

Live Flight TrackerFlight Track Log ✈ AAL2360 ✈ 01-May-2013 ✈ KDFW - KORD

Flight Track Log - Related Links

Times and Time Zones

All times are in EDT time to prevent confusion due to time zone crossing. See the AAL2360 flight status page for this flight to view local times or setup timezone preferences in your user account.

Time Position Orientation Groundspeed Altitude Reporting Facility
EDT Latitude Longitude Course Direction KTS MPH feet Rate Location/Type
03:37PM 32.8667 -97.0333 357° North 180 207 1,800  Level Dallas / Fort Worth TRACON
03:38PM 32.8333 -97.0167 157° South 206 237 3,000 2,160 Climbing Dallas / Fort Worth TRACON
03:39PM 32.7833 -96.9833 151° Southeast 230 265 5,300 2,400 Climbing Dallas / Fort Worth TRACON
03:40PM 32.8409 -96.8018 10° North  Level FlightAware Approximate
03:40PM 32.8000 -96.9167 73° East 249 287 7,600  Level Dallas / Fort Worth TRACON
03:41PM 32.9561 -96.8000 North  Level FlightAware Approximate
03:42PM 33.0713 -96.8003 357° North  Level FlightAware Approximate
03:42PM 32.9889 -96.8958 North 319 367 12,400  Level Fort Worth Center
03:43PM 33.1863 -96.8085 357° North  Level FlightAware Approximate
03:43PM 33.0869 -96.8803 North 328 377 14,700  Level Fort Worth Center
03:44PM 33.1850 -96.8675 North 353 406 17,000 2,040 Climbing Fort Worth Center
03:45PM 33.2831 -96.8519 North 374 430 18,800 1,860 Climbing Fort Worth Center
03:46PM 33.4039 -96.8336 North 384 442 20,800 1,800 Climbing Fort Worth Center
03:47PM 33.4978 -96.7958 19° North 391 450 22,500 1,680 Climbing Fort Worth Center
03:48PM 33.6122 -96.7225 28° Northeast 409 471 24,200 1,500 Climbing Fort Worth Center
03:49PM 33.7058 -96.6594 29° Northeast 419 482 25,600 1,440 Climbing Fort Worth Center
03:50PM 33.8053 -96.5736 36° Northeast 436 502 27,100 1,980 Climbing Fort Worth Center
03:51PM 33.9092 -96.4850 35° Northeast 425 489 29,600 1,980 Climbing Fort Worth Center
03:52PM 34.0022 -96.4039 36° Northeast 420 483 31,100 1,200 Climbing Fort Worth Center
03:53PM 34.0978 -96.3200 36° Northeast 420 483 32,100 900 Climbing Fort Worth Center
03:54PM 34.1928 -96.2358 36° Northeast 420 483 32,900 420 Climbing Fort Worth Center
03:55PM 34.2861 -96.1542 36° Northeast 420 483 33,000  Climbing Fort Worth Center
03:56PM 34.3769 -96.0722 37° Northeast 420 483 33,000  Level Fort Worth Center
03:57PM 34.4719 -95.9903 35° Northeast 415 478 33,000  Level Fort Worth Center
03:58PM 34.5650 -95.9106 35° Northeast 415 478 33,000  Level Fort Worth Center
03:59PM 34.6600 -95.8256 36° Northeast 415 478 33,000  Level Fort Worth Center
04:00PM 34.7569 -95.7403 36° Northeast 420 483 33,000  Level Fort Worth Center
04:01PM 34.8494 -95.6550 37° Northeast 420 483 33,000  Level Fort Worth Center
04:02PM 34.9383 -95.5822 34° Northeast 420 483 33,000  Level Fort Worth Center
04:03PM 35.0328 -95.4967 37° Northeast 420 483 33,000  Level Fort Worth Center
04:04PM 35.1294 -95.4106 36° Northeast 420 483 33,000  Level Fort Worth Center
04:05PM 35.2283 -95.3244 35° Northeast 420 483 33,000  Level Fort Worth Center
04:06PM 35.3269 -95.2356 36° Northeast 426 490 33,000  Level Fort Worth Center
04:07PM 35.4286 -95.1447 36° Northeast 428 493 33,000  Level Memphis Center
04:08PM 35.5258 -95.0533 37° Northeast 428 493 33,000  Level Memphis Center
04:09PM 35.6253 -94.9619 37° Northeast 433 498 33,000  Level Memphis Center
04:10PM 35.7225 -94.8703 37° Northeast 433 498 33,000  Level Memphis Center
04:11PM 35.8217 -94.7808 36° Northeast 433 498 33,000  Level Memphis Center
04:12PM 35.9228 -94.6889 36° Northeast 433 498 33,000  Level Memphis Center
04:14PM 36.0764 -94.5439 37° Northeast 443 510 33,000  Level Kansas City Center
04:15PM 36.2033 -94.4522 30° Northeast 441 507 33,000  Level Kansas City Center
04:16PM 36.3119 -94.3817 28° Northeast 442 509 33,000  Level Kansas City Center
04:17PM 36.4211 -94.3069 29° Northeast 445 512 33,000  Level Kansas City Center
04:18PM 36.5339 -94.2344 27° Northeast 450 518 33,000  Level Kansas City Center
04:19PM 36.6467 -94.1694 25° Northeast 447 514 33,000  Level Kansas City Center
04:20PM 36.7519 -94.0875 32° Northeast 446 513 33,000  Level Kansas City Center
04:21PM 36.8722 -93.9739 37° Northeast 450 518 33,000  Level Kansas City Center
04:22PM 36.9664 -93.8775 39° Northeast 442 509 33,000  Level Kansas City Center
04:23PM 37.0661 -93.7806 38° Northeast 448 516 33,000  Level Kansas City Center
04:24PM 37.1569 -93.6942 37° Northeast 450 518 33,000  Level Kansas City Center
04:25PM 37.2756 -93.5772 38° Northeast 450 518 33,000  Level Kansas City Center
04:26PM 37.3753 -93.4794 38° Northeast 452 520 33,000  Level Kansas City Center
04:28PM 37.4753 -93.3817 38° Northeast 453 521 33,000  Level Kansas City Center
04:29PM 37.5744 -93.2839 38° Northeast 452 520 33,000  Level Kansas City Center
04:30PM 37.6739 -93.1847 38° Northeast 453 521 33,000  Level Kansas City Center
04:31PM 37.7739 -93.0858 38° Northeast 455 524 33,000  Level Kansas City Center
04:32PM 37.8742 -92.9858 38° Northeast 454 522 33,000  Level Kansas City Center
04:33PM 37.9953 -92.8644 38° Northeast 457 526 33,000  Level Kansas City Center
04:34PM 38.0956 -92.7628 39° Northeast 456 525 33,000  Level Kansas City Center
04:35PM 38.1972 -92.6608 38° Northeast 457 526 33,000  Level Kansas City Center
04:36PM 38.2994 -92.5556 39° Northeast 462 532 33,000  Level Kansas City Center
04:37PM 38.4011 -92.4514 39° Northeast 463 533 33,000  Level Kansas City Center
04:38PM 38.5031 -92.3492 38° Northeast 463 533 33,000  Level Kansas City Center
04:39PM 38.6056 -92.2433 39° Northeast 466 536 33,000  Level Kansas City Center
04:40PM 38.7078 -92.1378 39° Northeast 468 539 33,000  Level Kansas City Center
04:41PM 38.8094 -92.0325 39° Northeast 469 540 33,000  Level Kansas City Center
04:42PM 38.9311 -91.9064 39° Northeast 468 539 33,000  Level Kansas City Center
04:43PM 39.0333 -91.8008 39° Northeast 469 540 33,000  Level Kansas City Center
04:44PM 39.1322 -91.6969 39° Northeast 468 539 33,000  Level Kansas City Center
04:45PM 39.2339 -91.5869 40° Northeast 471 542 33,000  Level Kansas City Center
04:46PM 39.3372 -91.4786 39° Northeast 475 547 33,000  Level Kansas City Center
04:47PM 39.4392 -91.3711 39° Northeast 474 545 33,000  Level Kansas City Center
04:48PM 39.5394 -91.2642 39° Northeast 469 540 33,000  Level Kansas City Center
04:49PM 39.6589 -91.1353 40° Northeast 466 536 33,000  Level Kansas City Center
04:50PM 39.7625 -91.0267 39° Northeast 467 537 33,000  Level Kansas City Center
04:51PM 39.8647 -90.9258 37° Northeast 464 534 33,000  Level Kansas City Center
04:52PM 39.9658 -90.8261 37° Northeast 459 528 33,000  Level Kansas City Center
04:53PM 40.0664 -90.7217 38° Northeast 460 529 33,000  Level Kansas City Center
04:54PM 40.1475 -90.6397 38° Northeast 457 526 33,000  Level Chicago Center
04:55PM 40.2450 -90.5403 38° Northeast 452 520 33,000  Level Chicago Center
04:56PM 40.3439 -90.4394 38° Northeast 449 517 33,000  Level Chicago Center
04:57PM 40.4425 -90.3381 38° Northeast 449 517 33,000  Level Chicago Center
04:58PM 40.5547 -90.2242 38° Northeast 436 502 33,000 -540 Level Chicago Center
04:59PM 40.6506 -90.1250 38° Northeast 439 505 31,900 -1,320 Descending Chicago Center
05:00PM 40.7469 -90.0253 38° Northeast 440 506 30,300 -1,500 Descending Chicago Center
05:01PM 40.8400 -89.9306 38° Northeast 427 491 28,800 -1,620 Descending Chicago Center
05:02PM 40.9417 -89.8211 39° Northeast 397 457 27,000 -1,560 Descending Chicago Center
05:03PM 41.0183 -89.7406 38° Northeast 384 442 25,600 -1,500 Descending Chicago Center
05:04PM 41.1003 -89.6531 39° Northeast 378 435 24,000 -1,800 Descending Chicago Center
05:05PM 41.1733 -89.5597 44° Northeast 372 428 22,000 -1,980 Descending Chicago Center
05:07PM 41.2297 -89.4222 61° Northeast 355 409 20,000 -1,920 Descending Chicago Center
05:08PM 41.2764 -89.3061 62° Northeast 355 409 18,100 -1,680 Descending Chicago Center
05:09PM 41.3225 -89.1881 62° Northeast 349 402 16,500 -1,500 Descending Chicago Center
05:10PM 41.3661 -89.0797 62° Northeast 340 391 15,000 -1,500 Descending Chicago Center
05:11PM 41.4086 -88.9725 62° Northeast 333 383 13,400 -1,500 Descending Chicago Center
05:12PM 41.4492 -88.8681 63° Northeast 322 371 12,000 -1,200 Descending Chicago Center
05:13PM 41.4981 -88.7425 62° Northeast 319 367 11,000 -540 Descending Chicago Center
05:14PM 41.5406 -88.6372 62° Northeast 322 371 11,000  Level Chicago Center
05:15PM 41.5808 -88.5339 62° Northeast 317 365 11,000 -240 Level Chicago Center
05:16PM 41.6267 -88.4333 59° Northeast 317 365 10,600 -780 Descending Chicago Center
05:17PM 41.6906 -88.3519 44° Northeast 320 368 9,500 -1,020 Descending Chicago Center
05:18PM 41.7767 -88.3222 14° North 319 367 8,600 -1,440 Descending Chicago Center
05:19PM 41.8728 -88.2881 15° North 302 348 6,500 -1,740 Descending Chicago Center
05:20PM 41.9428 -88.2594 17° North 262 302 5,000 -1,260 Descending Chicago Center
05:21PM 41.9678 -88.1817 67° East 246 283 3,900 -1,080 Descending Chicago Center